createdAt,value
2019-02-18T00:00:43.563Z,35.90
2019-02-18T00:03:12.265Z,35.30
2019-02-18T00:05:41.120Z,35.67
2019-02-18T00:08:09.649Z,36.60
2019-02-18T00:10:38.167Z,35.10
2019-02-18T00:13:06.795Z,36.73
2019-02-18T00:15:35.535Z,36.60
2019-02-18T00:18:04.088Z,36.60
2019-02-18T00:20:32.552Z,37.53
2019-02-18T00:23:01.167Z,36.57
2019-02-18T00:25:30.020Z,37.73
2019-02-18T00:27:58.570Z,36.53
2019-02-18T00:30:27.023Z,37.43
2019-02-18T00:32:55.889Z,37.60
2019-02-18T00:35:24.425Z,37.57
2019-02-18T00:37:52.979Z,38.30
2019-02-18T00:40:21.822Z,36.90
2019-02-18T00:42:50.303Z,36.50
2019-02-18T00:45:18.771Z,35.73
2019-02-18T00:47:48.167Z,35.77
2019-02-18T00:50:16.864Z,36.40
2019-02-18T00:52:45.422Z,35.70
2019-02-18T00:55:13.975Z,34.80
2019-02-18T00:57:42.507Z,33.50
2019-02-18T01:00:14.236Z,35.27
2019-02-18T01:02:42.907Z,35.00
2019-02-18T01:05:11.855Z,35.83
2019-02-18T01:07:40.751Z,34.57
2019-02-18T01:10:13.433Z,34.70
2019-02-18T01:12:42.035Z,35.30
2019-02-18T01:15:14.431Z,34.77
2019-02-18T01:17:42.890Z,35.70
2019-02-18T01:20:13.614Z,35.60
2019-02-18T01:22:42.387Z,32.33
2019-02-18T01:25:12.862Z,34.03
2019-02-18T01:27:41.577Z,34.47
2019-02-18T01:30:15.343Z,34.77
2019-02-18T01:32:44.304Z,35.80
2019-02-18T01:35:13.086Z,33.50
2019-02-18T01:37:45.825Z,33.30
2019-02-18T01:40:13.750Z,34.50
2019-02-18T01:42:42.314Z,35.33
2019-02-18T01:45:13.447Z,34.73
2019-02-18T01:47:42.251Z,32.53
2019-02-18T01:50:12.876Z,33.97
2019-02-18T01:52:41.583Z,34.27
2019-02-18T01:55:11.979Z,32.87
2019-02-18T01:57:40.506Z,34.50
2019-02-18T02:00:12.571Z,33.00
2019-02-18T02:02:41.441Z,35.50
2019-02-18T02:05:11.807Z,34.13
2019-02-18T02:07:40.396Z,35.10
2019-02-18T02:10:11.420Z,36.23
2019-02-18T02:12:39.943Z,35.10
2019-02-18T02:15:14.495Z,35.40
2019-02-18T02:17:42.955Z,36.87
2019-02-18T02:20:11.547Z,35.73
2019-02-18T02:22:40.031Z,36.67
2019-02-18T02:25:08.628Z,35.97
2019-02-18T02:27:37.107Z,38.13
2019-02-18T02:30:08.313Z,35.63
2019-02-18T02:32:36.868Z,36.40
2019-02-18T02:35:05.467Z,35.47
2019-02-18T02:37:34.019Z,35.70
2019-02-18T02:40:02.478Z,35.07
2019-02-18T02:42:31.380Z,38.03
2019-02-18T02:44:59.909Z,36.17
2019-02-18T02:47:28.475Z,38.03
2019-02-18T02:49:56.999Z,35.90
2019-02-18T02:52:25.477Z,35.60
2019-02-18T02:54:54.297Z,35.83
2019-02-18T02:57:22.851Z,36.63
2019-02-18T02:59:51.303Z,36.40
2019-02-18T03:02:19.798Z,35.27
2019-02-18T03:04:48.393Z,36.60
2019-02-18T03:07:16.924Z,35.20
2019-02-18T03:09:46.099Z,36.33
2019-02-18T03:12:14.560Z,36.23
2019-02-18T03:14:43.043Z,35.27
2019-02-18T03:17:11.498Z,34.03
2019-02-18T03:19:40.052Z,33.90
2019-02-18T03:22:08.587Z,35.57
2019-02-18T03:24:37.071Z,35.10
2019-02-18T03:27:05.908Z,32.23
2019-02-18T03:29:43.324Z,34.17
2019-02-18T03:32:11.785Z,32.43
2019-02-18T03:34:40.411Z,32.57
2019-02-18T03:37:08.876Z,35.03
2019-02-18T03:39:37.443Z,34.07
2019-02-18T03:42:06.037Z,32.90
2019-02-18T03:44:34.524Z,33.23
2019-02-18T03:47:03.026Z,34.30
2019-02-18T03:49:31.834Z,33.00
2019-02-18T03:52:00.304Z,34.17
2019-02-18T03:54:28.869Z,34.63
2019-02-18T03:56:57.476Z,33.93
2019-02-18T03:59:26.383Z,34.10
2019-02-18T04:01:55.375Z,34.83
2019-02-18T04:04:23.985Z,35.43
2019-02-18T04:06:52.480Z,34.07
2019-02-18T04:09:21.017Z,36.27
2019-02-18T04:11:49.588Z,37.17
2019-02-18T04:14:18.133Z,36.33
2019-02-18T04:16:46.697Z,36.93
2019-02-18T04:19:15.324Z,36.27
2019-02-18T04:21:43.881Z,35.30
2019-02-18T04:24:12.429Z,35.73
2019-02-18T04:26:40.974Z,38.00
2019-02-18T04:29:09.543Z,38.07
2019-02-18T04:31:38.088Z,37.37
2019-02-18T04:34:06.721Z,37.77
2019-02-18T04:36:35.257Z,37.87
2019-02-18T04:39:05.521Z,41.63
2019-02-18T04:41:34.062Z,37.00
2019-02-18T04:44:02.562Z,40.93
2019-02-18T04:46:31.097Z,36.77
2019-02-18T04:48:59.593Z,36.50
2019-02-18T04:51:28.136Z,39.60
2019-02-18T04:53:56.705Z,38.43
2019-02-18T04:56:25.549Z,36.60
2019-02-18T04:58:54.208Z,37.10
2019-02-18T05:01:23.670Z,35.40
2019-02-18T05:03:52.225Z,33.73
2019-02-18T05:06:20.757Z,34.63
2019-02-18T05:08:49.320Z,33.57
2019-02-18T05:11:17.790Z,32.20
2019-02-18T05:13:46.327Z,32.70
2019-02-18T05:16:14.890Z,33.03
2019-02-18T05:18:43.501Z,31.50
2019-02-18T05:21:11.989Z,30.93
2019-02-18T05:23:40.457Z,32.10
2019-02-18T05:26:08.997Z,31.27
2019-02-18T05:28:37.484Z,31.10
2019-02-18T05:31:05.949Z,30.70
2019-02-18T05:33:34.513Z,32.13
2019-02-18T05:36:03.050Z,30.30
2019-02-18T05:38:31.621Z,32.60
2019-02-18T05:41:00.257Z,31.47
2019-02-18T05:43:28.757Z,31.27
2019-02-18T05:45:57.300Z,34.53
2019-02-18T05:48:25.857Z,33.13
2019-02-18T05:50:54.398Z,32.60
2019-02-18T05:53:22.961Z,33.90
2019-02-18T05:55:51.435Z,35.10
2019-02-18T05:58:20.100Z,35.20
2019-02-18T06:00:48.574Z,34.23
2019-02-18T06:03:17.137Z,164.10
2019-02-18T06:05:45.683Z,36.13
2019-02-18T06:08:14.245Z,36.57
2019-02-18T06:10:42.714Z,36.43
2019-02-18T06:13:11.280Z,35.00
2019-02-18T06:15:39.821Z,36.20
2019-02-18T06:18:08.282Z,34.23
2019-02-18T06:20:37.199Z,35.10
2019-02-18T06:23:05.803Z,36.60
2019-02-18T06:25:34.405Z,34.73
2019-02-18T06:28:04.869Z,33.70
2019-02-18T06:30:33.233Z,32.90
2019-02-18T06:33:01.774Z,32.13
2019-02-18T06:35:30.314Z,33.67
2019-02-18T06:37:58.877Z,34.10
2019-02-18T06:40:27.421Z,32.53
2019-02-18T06:42:55.983Z,33.67
2019-02-18T06:45:41.683Z,34.00
2019-02-18T06:48:15.001Z,33.60
2019-02-18T06:50:43.541Z,33.27
2019-02-18T06:53:12.105Z,32.43
2019-02-18T06:55:40.640Z,31.40
2019-02-18T06:58:29.081Z,32.17
2019-02-18T07:00:59.261Z,33.17
2019-02-18T07:03:29.805Z,33.83
2019-02-18T07:05:59.908Z,34.43
2019-02-18T07:08:46.774Z,34.50
2019-02-18T07:11:17.113Z,34.00
2019-02-18T07:13:45.937Z,34.40
2019-02-18T07:16:14.744Z,35.40
2019-02-18T07:18:43.334Z,38.10
2019-02-18T07:21:11.798Z,36.03
2019-02-18T07:23:40.696Z,32.70
2019-02-18T07:26:09.593Z,34.50
2019-02-18T07:28:38.165Z,33.50
2019-02-18T07:31:06.701Z,35.57
2019-02-18T07:33:35.199Z,37.30
2019-02-18T07:36:03.736Z,35.80
2019-02-18T07:38:32.281Z,41.40
2019-02-18T07:41:00.840Z,33.40
2019-02-18T07:43:29.309Z,35.77
2019-02-18T07:45:57.870Z,31.30
2019-02-18T07:48:26.421Z,33.77
2019-02-18T07:50:55.274Z,33.40
2019-02-18T07:53:23.812Z,31.90
2019-02-18T07:55:52.365Z,33.20
2019-02-18T07:58:21.200Z,33.47
2019-02-18T08:00:49.761Z,33.77
2019-02-18T08:03:18.224Z,34.00
2019-02-18T08:05:46.693Z,33.80
2019-02-18T08:08:15.254Z,30.60
2019-02-18T08:10:43.857Z,32.83
2019-02-18T08:13:12.353Z,33.20
2019-02-18T08:15:40.892Z,33.87
2019-02-18T08:18:09.461Z,34.20
2019-02-18T08:20:38.433Z,34.63
2019-02-18T08:23:06.929Z,34.40
2019-02-18T08:25:35.535Z,34.27
2019-02-18T08:28:04.241Z,33.57
2019-02-18T08:30:32.845Z,33.47
2019-02-18T08:33:01.419Z,35.80
2019-02-18T08:35:29.949Z,35.60
2019-02-18T08:37:58.432Z,34.70
2019-02-18T08:40:27.210Z,33.80
2019-02-18T08:42:55.749Z,34.73
2019-02-18T08:45:24.310Z,33.60
2019-02-18T08:47:52.853Z,33.30
2019-02-18T08:50:21.417Z,35.03
2019-02-18T08:52:49.880Z,33.80
2019-02-18T08:55:18.491Z,35.03
2019-02-18T08:57:46.981Z,33.80
2019-02-18T09:00:17.208Z,34.80
2019-02-18T09:02:45.744Z,33.20
2019-02-18T09:05:14.380Z,36.20
2019-02-18T09:07:43.014Z,33.27
2019-02-18T09:10:13.616Z,33.07
2019-02-18T09:12:42.076Z,34.53
2019-02-18T09:15:13.952Z,33.80
2019-02-18T09:17:41.833Z,34.30
2019-02-18T09:20:10.498Z,33.60
2019-02-18T09:22:43.597Z,36.23
2019-02-18T09:25:22.790Z,36.13
2019-02-18T09:27:51.766Z,35.57
2019-02-18T09:30:21.970Z,35.50
2019-02-18T09:32:50.510Z,37.93
2019-02-18T09:35:19.068Z,37.00
2019-02-18T09:37:47.608Z,36.67
2019-02-18T09:40:16.179Z,35.57
2019-02-18T09:42:44.717Z,35.27
2019-02-18T09:45:15.018Z,35.47
2019-02-18T09:47:43.698Z,34.20
2019-02-18T09:50:12.317Z,33.80
2019-02-18T09:52:40.950Z,35.10
2019-02-18T09:55:10.725Z,36.17
2019-02-18T09:57:39.297Z,35.87
2019-02-18T10:00:10.742Z,34.43
2019-02-18T10:02:39.313Z,34.40
2019-02-18T10:05:08.584Z,35.43
2019-02-18T10:07:37.224Z,35.23
2019-02-18T10:10:08.108Z,34.97
2019-02-18T10:12:36.681Z,33.97
2019-02-18T10:15:08.061Z,35.80
2019-02-18T10:17:36.601Z,33.93
2019-02-18T10:20:08.417Z,33.60
2019-02-18T10:22:37.092Z,33.27
2019-02-18T10:25:11.093Z,33.00
2019-02-18T10:27:39.929Z,32.43
2019-02-18T10:30:10.606Z,32.53
2019-02-18T10:32:39.217Z,30.67
2019-02-18T10:35:10.497Z,31.80
2019-02-18T10:37:39.032Z,31.10
2019-02-18T10:40:09.440Z,32.23
2019-02-18T10:42:38.078Z,32.07
2019-02-18T10:45:09.929Z,31.50
2019-02-18T10:47:38.496Z,30.97
2019-02-18T10:50:09.641Z,30.70
2019-02-18T10:52:38.218Z,30.30
2019-02-18T10:55:09.002Z,30.50
2019-02-18T10:57:37.865Z,31.23
2019-02-18T11:00:12.571Z,29.20
2019-02-18T11:02:41.153Z,30.43
2019-02-18T11:05:09.841Z,30.00
2019-02-18T11:07:38.521Z,29.00
2019-02-18T11:10:12.473Z,30.07
2019-02-18T11:12:41.080Z,27.63
2019-02-18T11:15:12.084Z,28.33
2019-02-18T11:17:40.617Z,29.27
2019-02-18T11:20:12.716Z,28.57
2019-02-18T11:22:41.396Z,27.00
2019-02-18T11:25:14.669Z,27.80
2019-02-18T11:27:43.518Z,27.80
2019-02-18T11:30:17.429Z,28.37
2019-02-18T11:32:46.109Z,27.97
2019-02-18T11:35:14.750Z,26.60
2019-02-18T11:37:43.625Z,25.20
2019-02-18T11:40:15.009Z,25.00
2019-02-18T11:42:43.554Z,26.10
2019-02-18T11:45:14.412Z,25.50
2019-02-18T11:47:42.977Z,25.20
2019-02-18T11:50:15.219Z,24.93
2019-02-18T11:52:43.859Z,24.00
2019-02-18T11:55:13.340Z,25.40
2019-02-18T11:57:42.276Z,24.93
2019-02-18T12:00:15.337Z,21.50
2019-02-18T12:02:43.972Z,22.20
2019-02-18T12:05:13.154Z,22.93
2019-02-18T12:07:42.161Z,20.80
2019-02-18T12:10:14.235Z,18.23
2019-02-18T12:12:43.161Z,16.37
2019-02-18T12:15:15.810Z,17.60
2019-02-18T12:17:44.346Z,22.67
2019-02-18T12:20:16.672Z,22.57
2019-02-18T12:22:45.221Z,22.13
2019-02-18T12:25:14.031Z,20.80
2019-02-18T12:27:42.965Z,18.87
2019-02-18T12:30:15.676Z,18.13
2019-02-18T12:32:44.297Z,20.30
2019-02-18T12:35:13.598Z,25.90
2019-02-18T12:37:42.209Z,23.93
2019-02-18T12:40:12.626Z,26.70
2019-02-18T12:42:42.406Z,27.13
2019-02-18T12:45:13.540Z,25.67
2019-02-18T12:47:42.156Z,22.13
2019-02-18T12:50:11.972Z,21.10
2019-02-18T12:52:40.577Z,18.07
2019-02-18T12:55:11.350Z,17.27
2019-02-18T12:57:40.666Z,17.03
2019-02-18T13:00:12.540Z,16.60
2019-02-18T13:02:44.142Z,16.43
2019-02-18T13:05:11.713Z,15.33
2019-02-18T13:07:40.328Z,15.17
2019-02-18T13:10:10.479Z,16.60
2019-02-18T13:12:39.116Z,15.33
2019-02-18T13:15:10.797Z,15.20
2019-02-18T13:17:39.684Z,15.97
2019-02-18T13:20:08.857Z,16.00
2019-02-18T13:22:37.496Z,13.67
2019-02-18T13:25:07.477Z,13.20
2019-02-18T13:27:36.113Z,10.87
2019-02-18T13:30:10.757Z,11.40
2019-02-18T13:32:39.456Z,10.23
2019-02-18T13:35:08.073Z,10.67
2019-02-18T13:37:36.713Z,10.80
2019-02-18T13:40:05.760Z,10.83
2019-02-18T13:42:34.329Z,11.13
2019-02-18T13:45:03.722Z,11.10
2019-02-18T13:47:32.289Z,11.00
2019-02-18T13:50:00.962Z,9.70
2019-02-18T13:52:29.593Z,9.67
2019-02-18T13:54:58.134Z,8.97
2019-02-18T13:57:27.048Z,8.17
2019-02-18T13:59:56.124Z,8.80
2019-02-18T14:02:24.681Z,9.00
2019-02-18T14:04:53.288Z,9.07
2019-02-18T14:07:21.928Z,9.23
2019-02-18T14:09:50.467Z,9.53
2019-02-18T14:12:19.000Z,9.93
2019-02-18T14:14:47.858Z,9.40
2019-02-18T14:17:16.401Z,9.30
2019-02-18T14:19:44.965Z,9.60
2019-02-18T14:22:13.948Z,9.40
2019-02-18T14:24:42.584Z,9.27
2019-02-18T14:27:11.123Z,10.60
2019-02-18T14:29:39.692Z,11.07
2019-02-18T14:32:08.600Z,11.90
2019-02-18T14:34:37.165Z,11.20
2019-02-18T14:37:05.848Z,11.03
2019-02-18T14:39:34.489Z,12.17
2019-02-18T14:42:03.510Z,11.60
2019-02-18T14:44:32.121Z,11.73
2019-02-18T14:47:01.069Z,11.10
2019-02-18T14:49:29.607Z,11.60
2019-02-18T14:51:58.173Z,12.07
2019-02-18T14:54:26.708Z,12.90
2019-02-18T14:56:55.348Z,12.90
2019-02-18T14:59:24.033Z,12.83
2019-02-18T15:01:52.665Z,12.40
2019-02-18T15:04:21.209Z,12.20
2019-02-18T15:06:49.917Z,12.00
2019-02-18T15:09:18.529Z,11.93
2019-02-18T15:11:47.169Z,11.60
2019-02-18T15:14:15.700Z,12.10
2019-02-18T15:16:44.285Z,11.50
2019-02-18T15:19:13.116Z,12.13
2019-02-18T15:21:41.725Z,12.13
2019-02-18T15:24:10.290Z,12.20
2019-02-18T15:26:39.005Z,12.40
2019-02-18T15:29:07.548Z,11.93
2019-02-18T15:31:36.696Z,11.70
2019-02-18T15:34:05.633Z,13.80
2019-02-18T15:36:34.605Z,11.70
2019-02-18T15:39:04.085Z,13.13
2019-02-18T15:41:32.696Z,12.10
2019-02-18T15:44:01.261Z,12.17
2019-02-18T15:46:30.173Z,11.90
2019-02-18T15:48:59.218Z,12.77
2019-02-18T15:51:27.829Z,13.57
2019-02-18T15:53:56.741Z,13.03
2019-02-18T15:56:25.280Z,12.77
2019-02-18T15:58:54.316Z,13.00
2019-02-18T16:01:23.003Z,13.30
2019-02-18T16:03:51.578Z,13.80
2019-02-18T16:06:20.182Z,13.00
2019-02-18T16:08:48.724Z,12.70
2019-02-18T16:11:17.293Z,12.83
2019-02-18T16:13:45.837Z,13.30
2019-02-18T16:16:14.404Z,13.67
2019-02-18T16:18:42.953Z,14.90
2019-02-18T16:21:11.830Z,12.87
2019-02-18T16:23:40.374Z,13.53
2019-02-18T16:26:08.941Z,14.00
2019-02-18T16:28:37.485Z,14.37
2019-02-18T16:31:06.193Z,16.40
2019-02-18T16:33:34.736Z,15.53
2019-02-18T16:36:03.322Z,16.47
2019-02-18T16:38:31.869Z,15.30
2019-02-18T16:41:00.435Z,15.47
2019-02-18T16:43:29.641Z,18.33
2019-02-18T16:45:58.212Z,15.87
2019-02-18T16:48:27.151Z,15.83
2019-02-18T16:50:55.817Z,16.00
2019-02-18T16:53:24.352Z,15.53
2019-02-18T16:55:53.285Z,15.70
2019-02-18T16:58:21.825Z,15.33
2019-02-18T17:00:57.284Z,15.20
2019-02-18T17:03:20.666Z,15.00
2019-02-18T17:05:49.214Z,16.60
2019-02-18T17:08:17.787Z,16.73
2019-02-18T17:10:46.333Z,18.53
2019-02-18T17:13:15.209Z,19.37
2019-02-18T17:15:44.202Z,17.30
2019-02-18T17:18:12.768Z,16.57
2019-02-18T17:20:41.313Z,16.87
2019-02-18T17:23:10.244Z,16.23
2019-02-18T17:25:38.788Z,15.73
2019-02-18T17:28:07.366Z,16.33
2019-02-18T17:30:35.905Z,17.27
2019-02-18T17:33:04.472Z,17.20
2019-02-18T17:35:33.080Z,15.60
2019-02-18T17:38:01.999Z,16.43
2019-02-18T17:40:30.540Z,16.70
2019-02-18T17:42:59.113Z,16.30
2019-02-18T17:45:27.730Z,16.30
2019-02-18T17:47:56.305Z,17.30
2019-02-18T17:50:24.844Z,17.50
2019-02-18T17:52:53.392Z,17.60
2019-02-18T17:55:22.437Z,16.63
2019-02-18T17:57:50.982Z,17.43
2019-02-18T18:00:29.984Z,16.90
2019-02-18T18:02:58.867Z,18.17
2019-02-18T18:05:27.505Z,18.20
2019-02-18T18:07:56.044Z,18.17
2019-02-18T18:10:24.945Z,18.20
2019-02-18T18:12:53.569Z,20.63
2019-02-18T18:15:22.601Z,19.43
2019-02-18T18:17:51.149Z,19.50
2019-02-18T18:20:19.717Z,19.93
2019-02-18T18:22:48.256Z,20.40
2019-02-18T18:25:17.101Z,23.80
2019-02-18T18:27:45.655Z,21.90
2019-02-18T18:30:19.045Z,22.00
2019-02-18T18:32:47.568Z,19.47
2019-02-18T18:35:16.196Z,20.27
2019-02-18T18:37:44.740Z,18.57
2019-02-18T18:40:15.997Z,19.53
2019-02-18T18:42:44.908Z,19.30
2019-02-18T18:45:15.717Z,20.10
2019-02-18T18:47:44.881Z,18.00
2019-02-18T18:50:21.100Z,18.67
2019-02-18T18:52:49.737Z,19.37
2019-02-18T18:55:18.788Z,19.23
2019-02-18T18:57:47.681Z,20.17
2019-02-18T19:00:20.624Z,19.67
2019-02-18T19:02:49.192Z,19.07
2019-02-18T19:05:18.209Z,19.40
2019-02-18T19:07:46.828Z,20.60
2019-02-18T19:10:15.821Z,19.87
2019-02-18T19:12:44.369Z,20.07
2019-02-18T19:15:14.571Z,20.60
2019-02-18T19:17:43.119Z,22.43
2019-02-18T19:20:12.484Z,23.10
2019-02-18T19:22:41.069Z,20.90
2019-02-18T19:25:11.449Z,31.20
2019-02-18T19:27:40.080Z,26.00
2019-02-18T19:30:14.235Z,21.67
2019-02-18T19:32:42.865Z,22.90
2019-02-18T19:35:11.406Z,23.47
2019-02-18T19:37:39.942Z,23.60
2019-02-18T19:40:11.018Z,23.23
2019-02-18T19:42:39.557Z,25.40
2019-02-18T19:45:11.545Z,23.73
2019-02-18T19:47:40.677Z,24.90
2019-02-18T19:50:09.376Z,22.87
2019-02-18T19:52:37.984Z,22.60
2019-02-18T19:55:09.566Z,22.00
2019-02-18T19:57:38.092Z,22.77
2019-02-18T20:00:15.962Z,24.00
2019-02-18T20:02:44.575Z,23.07
2019-02-18T20:05:13.353Z,21.47
2019-02-18T20:07:41.985Z,21.67
2019-02-18T20:10:11.660Z,21.40
2019-02-18T20:12:40.365Z,22.30
2019-02-18T20:15:11.749Z,21.67
2019-02-18T20:17:40.680Z,19.90
2019-02-18T20:20:12.620Z,20.33
2019-02-18T20:22:41.318Z,21.47
2019-02-18T20:25:11.290Z,20.90
2019-02-18T20:27:39.925Z,20.07
2019-02-18T20:30:13.864Z,20.67
2019-02-18T20:32:42.499Z,20.07
2019-02-18T20:35:11.510Z,21.20
2019-02-18T20:37:40.485Z,21.30
2019-02-18T20:40:11.148Z,21.17
2019-02-18T20:42:40.060Z,20.97
2019-02-18T20:45:13.460Z,22.30
2019-02-18T20:47:42.404Z,20.63
2019-02-18T20:50:12.504Z,22.23
2019-02-18T20:52:41.112Z,24.10
2019-02-18T20:55:12.478Z,28.97
2019-02-18T20:57:41.081Z,26.77
2019-02-18T21:00:15.704Z,26.53
2019-02-18T21:02:44.552Z,27.30
2019-02-18T21:05:13.184Z,26.50
2019-02-18T21:07:41.860Z,24.20
2019-02-18T21:10:16.289Z,22.27
2019-02-18T21:12:44.895Z,24.23
2019-02-18T21:15:13.832Z,23.73
2019-02-18T21:17:42.399Z,22.50
2019-02-18T21:20:12.477Z,21.40
2019-02-18T21:22:41.178Z,23.07
2019-02-18T21:25:11.453Z,22.97
2019-02-18T21:27:40.076Z,22.10
2019-02-18T21:30:16.485Z,23.77
2019-02-18T21:32:45.117Z,21.93
2019-02-18T21:35:13.788Z,23.50
2019-02-18T21:37:42.628Z,24.47
2019-02-18T21:40:12.336Z,23.27
2019-02-18T21:42:41.019Z,23.23
2019-02-18T21:45:12.666Z,22.93
2019-02-18T21:47:41.200Z,22.97
2019-02-18T21:50:11.817Z,22.77
2019-02-18T21:52:40.785Z,22.83
2019-02-18T21:55:13.233Z,22.27
2019-02-18T21:57:42.069Z,21.40
2019-02-18T22:00:20.876Z,22.00
2019-02-18T22:02:50.085Z,22.83
2019-02-18T22:05:18.805Z,23.13
2019-02-18T22:07:47.376Z,21.70
2019-02-18T22:10:16.140Z,22.00
2019-02-18T22:12:44.776Z,23.27
2019-02-18T22:15:14.857Z,21.83
2019-02-18T22:17:43.496Z,23.40
2019-02-18T22:20:13.673Z,23.33
2019-02-18T22:22:42.244Z,22.40
2019-02-18T22:25:12.113Z,22.77
2019-02-18T22:27:40.744Z,22.13
2019-02-18T22:30:15.249Z,21.97
2019-02-18T22:32:43.981Z,22.53
2019-02-18T22:35:12.942Z,21.60
2019-02-18T22:37:41.501Z,21.53
2019-02-18T22:40:13.800Z,22.80
2019-02-18T22:42:42.434Z,22.07
2019-02-18T22:45:11.908Z,22.60
2019-02-18T22:47:40.878Z,21.77
2019-02-18T22:50:11.319Z,21.40
2019-02-18T22:52:40.226Z,21.83
2019-02-18T22:55:10.097Z,21.60
2019-02-18T22:57:38.996Z,21.83
2019-02-18T23:00:13.582Z,22.23
2019-02-18T23:02:44.829Z,21.33
2019-02-18T23:05:13.861Z,20.23
2019-02-18T23:07:42.396Z,20.97
2019-02-18T23:10:11.236Z,21.33
2019-02-18T23:12:39.774Z,23.83
2019-02-18T23:15:08.478Z,24.40
2019-02-18T23:17:37.008Z,22.10
2019-02-18T23:20:05.717Z,23.07
2019-02-18T23:22:34.552Z,22.50
2019-02-18T23:25:03.112Z,23.13
2019-02-18T23:27:31.651Z,22.43
2019-02-18T23:30:00.199Z,23.90
2019-02-18T23:32:28.762Z,22.60
2019-02-18T23:34:57.585Z,22.30
2019-02-18T23:37:26.150Z,22.13
2019-02-18T23:39:54.684Z,22.87
2019-02-18T23:42:23.240Z,22.40
2019-02-18T23:44:59.023Z,22.03
2019-02-18T23:47:21.908Z,22.80
2019-02-18T23:49:50.726Z,22.73
2019-02-18T23:52:19.216Z,21.13
2019-02-18T23:54:47.753Z,22.27
2019-02-18T23:57:16.688Z,21.50
2019-02-18T23:59:45.220Z,21.60
